CFC3436 EKCH-EDDK
Flight info
| Callsign | CFC3436 |
|---|---|
| Flight time | 1h 8m |
| Altitude | 33000 |
| Route | NEXEN T503 GIMRU DCT MICOS DCT LARBU Z189 RUNER T858 KOPAG KOPAG1C |
| Aircraft | A332/H-SDE3GHIJ2J3J5M1RVWXY/LB2D1 |
Departure
| Time | 2026-05-06 21:19 |
|---|---|
| Airport | Copenhagen Kastrup Airport (EKCH) |
Arrival
| Time | 2026-05-06 22:27 |
|---|---|
| Airport | Cologne Bonn Airport (EDDK) |
| Time | Latitude | Longitude | Altitude | Speed | Heading |
|---|---|---|---|---|---|
| 2026-05-06 20:53 | 55.62788 | 12.63855 | 27 ft | 0 kts | 294° |
| 2026-05-06 20:59 | 55.62790 | 12.63852 | 27 ft | 0 kts | 305° |
| 2026-05-06 20:59 | 55.62798 | 12.63849 | 27 ft | 2 kts | 346° |
| 2026-05-06 21:00 | 55.62804 | 12.63867 | 27 ft | 2 kts | 68° |
| 2026-05-06 21:00 | 55.62800 | 12.63880 | 27 ft | 0 kts | 117° |
| 2026-05-06 21:07 | 55.62799 | 12.63881 | 27 ft | 1 kts | 117° |
| 2026-05-06 21:07 | 55.62799 | 12.63882 | 27 ft | 0 kts | 117° |
| 2026-05-06 21:08 | 55.62788 | 12.63910 | 27 ft | 5 kts | 127° |
| 2026-05-06 21:08 | 55.62764 | 12.63925 | 27 ft | 3 kts | 186° |
| 2026-05-06 21:09 | 55.62740 | 12.63906 | 27 ft | 5 kts | 208° |
| 2026-05-06 21:09 | 55.62705 | 12.63873 | 28 ft | 7 kts | 208° |
| 2026-05-06 21:09 | 55.62658 | 12.63862 | 28 ft | 6 kts | 160° |
| 2026-05-06 21:09 | 55.62629 | 12.63919 | 29 ft | 7 kts | 127° |
| 2026-05-06 21:10 | 55.62592 | 12.64005 | 28 ft | 11 kts | 127° |
| 2026-05-06 21:10 | 55.62545 | 12.64144 | 29 ft | 15 kts | 120° |
| 2026-05-06 21:10 | 55.62509 | 12.64252 | 31 ft | 10 kts | 122° |
| 2026-05-06 21:10 | 55.62462 | 12.64378 | 25 ft | 15 kts | 123° |
| 2026-05-06 21:11 | 55.62423 | 12.64469 | 24 ft | 0 kts | 128° |
| 2026-05-06 21:11 | 55.62418 | 12.64480 | 23 ft | 2 kts | 128° |
| 2026-05-06 21:11 | 55.62408 | 12.64503 | 27 ft | 3 kts | 128° |
| 2026-05-06 21:11 | 55.62393 | 12.64536 | 25 ft | 4 kts | 129° |
| 2026-05-06 21:12 | 55.62369 | 12.64589 | 29 ft | 7 kts | 126° |
| 2026-05-06 21:12 | 55.62342 | 12.64674 | 26 ft | 9 kts | 108° |
| 2026-05-06 21:12 | 55.62348 | 12.64787 | 27 ft | 9 kts | 81° |
| 2026-05-06 21:12 | 55.62336 | 12.64893 | 28 ft | 9 kts | 113° |
| 2026-05-06 21:13 | 55.62286 | 12.65098 | 26 ft | 17 kts | 102° |
| 2026-05-06 21:13 | 55.62291 | 12.65219 | 26 ft | 15 kts | 85° |
| 2026-05-06 21:13 | 55.62295 | 12.65420 | 27 ft | 18 kts | 89° |
| 2026-05-06 21:13 | 55.62300 | 12.65662 | 19 ft | 21 kts | 87° |
| 2026-05-06 21:14 | 55.62307 | 12.65890 | 19 ft | 12 kts | 84° |
| 2026-05-06 21:14 | 55.62345 | 12.66034 | 17 ft | 14 kts | 44° |
| 2026-05-06 21:14 | 55.62421 | 12.66155 | 22 ft | 15 kts | 41° |
| 2026-05-06 21:14 | 55.62505 | 12.66277 | 21 ft | 17 kts | 39° |
| 2026-05-06 21:15 | 55.62592 | 12.66404 | 25 ft | 15 kts | 41° |
| 2026-05-06 21:15 | 55.62624 | 12.66554 | 17 ft | 4 kts | 108° |
| 2026-05-06 21:16 | 55.62623 | 12.66557 | 17 ft | 0 kts | 110° |
| 2026-05-06 21:17 | 55.62623 | 12.66558 | 17 ft | 1 kts | 111° |
| 2026-05-06 21:17 | 55.62611 | 12.66599 | 16 ft | 6 kts | 124° |
| 2026-05-06 21:17 | 55.62577 | 12.66667 | 17 ft | 8 kts | 131° |
| 2026-05-06 21:17 | 55.62534 | 12.66711 | 20 ft | 4 kts | 179° |
| 2026-05-06 21:18 | 55.62513 | 12.66696 | 21 ft | 2 kts | 211° |
| 2026-05-06 21:18 | 55.62505 | 12.66687 | 21 ft | 0 kts | 212° |
| 2026-05-06 21:19 | 55.62460 | 12.66634 | 27 ft | 31 kts | 214° |
| 2026-05-06 21:19 | 55.62047 | 12.66007 | 21 ft | 124 kts | 221° |
| 2026-05-06 21:19 | 55.61211 | 12.64743 | 459 ft | 175 kts | 219° |
| 2026-05-06 21:19 | 55.60207 | 12.63318 | 1571 ft | 202 kts | 218° |
| 2026-05-06 21:20 | 55.59075 | 12.61593 | 2161 ft | 229 kts | 221° |
| 2026-05-06 21:20 | 55.57844 | 12.59629 | 2778 ft | 246 kts | 220° |
| 2026-05-06 21:20 | 55.56529 | 12.57590 | 3524 ft | 257 kts | 217° |
| 2026-05-06 21:20 | 55.55087 | 12.55664 | 4318 ft | 264 kts | 215° |
| 2026-05-06 21:21 | 55.53584 | 12.53751 | 5155 ft | 270 kts | 215° |
| 2026-05-06 21:21 | 55.52040 | 12.51807 | 6036 ft | 276 kts | 216° |
| 2026-05-06 21:21 | 55.50464 | 12.49825 | 6960 ft | 281 kts | 216° |
| 2026-05-06 21:21 | 55.48871 | 12.47824 | 7940 ft | 283 kts | 216° |
| 2026-05-06 21:22 | 55.47258 | 12.45802 | 8906 ft | 286 kts | 216° |
| 2026-05-06 21:22 | 55.45631 | 12.43762 | 9830 ft | 290 kts | 216° |
| 2026-05-06 21:22 | 55.43974 | 12.41685 | 10601 ft | 300 kts | 216° |
| 2026-05-06 21:22 | 55.42220 | 12.39488 | 10998 ft | 321 kts | 216° |
| 2026-05-06 21:23 | 55.40353 | 12.37153 | 11490 ft | 337 kts | 216° |
| 2026-05-06 21:23 | 55.38426 | 12.34748 | 12234 ft | 343 kts | 216° |
| 2026-05-06 21:23 | 55.36481 | 12.32323 | 13114 ft | 344 kts | 216° |
| 2026-05-06 21:23 | 55.34530 | 12.29894 | 14003 ft | 345 kts | 216° |
| 2026-05-06 21:24 | 55.32566 | 12.27450 | 14788 ft | 348 kts | 216° |
| 2026-05-06 21:24 | 55.30584 | 12.24988 | 15544 ft | 351 kts | 216° |
| 2026-05-06 21:24 | 55.28583 | 12.22505 | 16306 ft | 354 kts | 217° |
| 2026-05-06 21:24 | 55.26566 | 12.20005 | 17052 ft | 357 kts | 216° |
| 2026-05-06 21:25 | 55.24535 | 12.17492 | 17772 ft | 360 kts | 217° |
| 2026-05-06 21:25 | 55.22486 | 12.14960 | 18482 ft | 362 kts | 217° |
| 2026-05-06 21:25 | 55.20425 | 12.12402 | 19152 ft | 365 kts | 217° |
| 2026-05-06 21:25 | 55.18366 | 12.09783 | 19788 ft | 368 kts | 217° |
| 2026-05-06 21:26 | 55.16297 | 12.07133 | 20400 ft | 371 kts | 217° |
| 2026-05-06 21:26 | 55.14210 | 12.04459 | 21013 ft | 374 kts | 217° |
| 2026-05-06 21:26 | 55.12105 | 12.01768 | 21613 ft | 377 kts | 217° |
| 2026-05-06 21:26 | 55.09984 | 11.99059 | 22192 ft | 380 kts | 217° |
| 2026-05-06 21:27 | 55.07843 | 11.96330 | 22734 ft | 384 kts | 217° |
| 2026-05-06 21:27 | 55.05682 | 11.93579 | 23263 ft | 387 kts | 217° |
| 2026-05-06 21:27 | 55.03502 | 11.90807 | 23791 ft | 390 kts | 217° |
| 2026-05-06 21:27 | 55.01306 | 11.88021 | 24323 ft | 392 kts | 217° |
| 2026-05-06 21:28 | 54.99094 | 11.85218 | 24808 ft | 396 kts | 217° |
| 2026-05-06 21:28 | 54.96862 | 11.82393 | 25296 ft | 398 kts | 217° |
| 2026-05-06 21:28 | 54.94618 | 11.79557 | 25778 ft | 401 kts | 217° |
| 2026-05-06 21:28 | 54.92361 | 11.76707 | 26270 ft | 402 kts | 217° |
| 2026-05-06 21:29 | 54.90092 | 11.73847 | 26726 ft | 405 kts | 217° |
| 2026-05-06 21:29 | 54.87805 | 11.70969 | 27166 ft | 408 kts | 216° |
| 2026-05-06 21:29 | 54.85508 | 11.68083 | 27627 ft | 409 kts | 216° |
| 2026-05-06 21:29 | 54.83204 | 11.65190 | 28038 ft | 412 kts | 216° |
| 2026-05-06 21:30 | 54.80878 | 11.62276 | 28444 ft | 415 kts | 216° |
| 2026-05-06 21:30 | 54.78539 | 11.59347 | 28870 ft | 417 kts | 216° |
| 2026-05-06 21:30 | 54.76183 | 11.56403 | 29296 ft | 418 kts | 216° |
| 2026-05-06 21:30 | 54.73825 | 11.53457 | 29717 ft | 420 kts | 216° |
| 2026-05-06 21:31 | 54.71456 | 11.50504 | 30097 ft | 422 kts | 216° |
| 2026-05-06 21:31 | 54.69068 | 11.47534 | 30497 ft | 424 kts | 216° |
| 2026-05-06 21:31 | 54.66667 | 11.44552 | 30853 ft | 427 kts | 216° |
| 2026-05-06 21:31 | 54.64251 | 11.41553 | 31215 ft | 430 kts | 216° |
| 2026-05-06 21:32 | 54.61822 | 11.38546 | 31555 ft | 433 kts | 216° |
| 2026-05-06 21:32 | 54.56924 | 11.32497 | 32412 ft | 433 kts | 216° |
| 2026-05-06 21:32 | 54.54485 | 11.29500 | 32825 ft | 433 kts | 216° |
| 2026-05-06 21:33 | 54.52039 | 11.26513 | 32940 ft | 429 kts | 216° |
| 2026-05-06 21:33 | 54.49614 | 11.23562 | 32954 ft | 426 kts | 216° |
| 2026-05-06 21:33 | 54.44794 | 11.17712 | 32945 ft | 425 kts | 216° |
| 2026-05-06 21:34 | 54.39973 | 11.11877 | 32943 ft | 425 kts | 216° |
| 2026-05-06 21:34 | 54.35149 | 11.06055 | 32948 ft | 425 kts | 216° |
| 2026-05-06 21:35 | 54.30221 | 11.00480 | 32954 ft | 426 kts | 209° |
| 2026-05-06 21:35 | 54.24915 | 10.95970 | 32953 ft | 427 kts | 206° |
| 2026-05-06 21:36 | 54.19527 | 10.91693 | 32948 ft | 428 kts | 206° |
| 2026-05-06 21:36 | 54.14123 | 10.87462 | 32943 ft | 429 kts | 206° |
| 2026-05-06 21:37 | 54.08714 | 10.83217 | 32942 ft | 429 kts | 206° |
| 2026-05-06 21:37 | 54.03300 | 10.78961 | 32943 ft | 429 kts | 206° |
| 2026-05-06 21:38 | 53.97888 | 10.74717 | 32944 ft | 430 kts | 206° |
| 2026-05-06 21:38 | 53.92478 | 10.70485 | 32943 ft | 429 kts | 206° |
| 2026-05-06 21:39 | 53.87067 | 10.66267 | 32934 ft | 429 kts | 206° |
| 2026-05-06 21:39 | 53.81656 | 10.62056 | 32941 ft | 429 kts | 206° |
| 2026-05-06 21:40 | 53.76243 | 10.57857 | 32945 ft | 430 kts | 206° |
| 2026-05-06 21:40 | 53.70816 | 10.53658 | 32943 ft | 430 kts | 206° |
| 2026-05-06 21:41 | 53.65389 | 10.49476 | 32941 ft | 430 kts | 206° |
| 2026-05-06 21:41 | 53.59964 | 10.45306 | 32935 ft | 430 kts | 206° |
| 2026-05-06 21:42 | 53.54535 | 10.41147 | 32934 ft | 429 kts | 206° |
| 2026-05-06 21:42 | 53.49110 | 10.36999 | 32934 ft | 429 kts | 206° |
| 2026-05-06 21:43 | 53.43683 | 10.32862 | 32927 ft | 429 kts | 205° |
| 2026-05-06 21:43 | 53.38266 | 10.28742 | 32923 ft | 428 kts | 205° |
| 2026-05-06 21:44 | 53.32851 | 10.24637 | 32928 ft | 428 kts | 205° |
| 2026-05-06 21:44 | 53.27448 | 10.20551 | 32921 ft | 427 kts | 205° |
| 2026-05-06 21:45 | 53.22042 | 10.16477 | 32912 ft | 426 kts | 205° |
| 2026-05-06 21:45 | 53.16646 | 10.12424 | 32903 ft | 425 kts | 205° |
| 2026-05-06 21:46 | 53.11266 | 10.08391 | 32903 ft | 425 kts | 205° |
| 2026-05-06 21:46 | 53.05889 | 10.04371 | 32885 ft | 424 kts | 205° |
| 2026-05-06 21:47 | 53.00523 | 10.00369 | 32888 ft | 423 kts | 205° |
| 2026-05-06 21:47 | 52.95168 | 9.96386 | 32901 ft | 423 kts | 205° |
| 2026-05-06 21:48 | 52.89786 | 9.92395 | 32886 ft | 425 kts | 205° |
| 2026-05-06 21:48 | 52.84401 | 9.88413 | 32895 ft | 425 kts | 205° |
| 2026-05-06 21:49 | 52.79026 | 9.84450 | 32887 ft | 424 kts | 205° |
| 2026-05-06 21:49 | 52.73654 | 9.80498 | 32887 ft | 423 kts | 205° |
| 2026-05-06 21:50 | 52.68294 | 9.76567 | 32887 ft | 422 kts | 205° |
| 2026-05-06 21:50 | 52.62937 | 9.72649 | 32885 ft | 421 kts | 205° |
| 2026-05-06 21:51 | 52.57597 | 9.68754 | 32886 ft | 421 kts | 205° |
| 2026-05-06 21:51 | 52.52258 | 9.64870 | 32885 ft | 421 kts | 204° |
| 2026-05-06 21:52 | 52.46917 | 9.60994 | 32886 ft | 420 kts | 204° |
| 2026-05-06 21:52 | 52.41586 | 9.57134 | 32885 ft | 419 kts | 204° |
| 2026-05-06 21:53 | 52.36259 | 9.53288 | 32888 ft | 420 kts | 204° |
| 2026-05-06 21:53 | 52.30927 | 9.49450 | 32888 ft | 419 kts | 204° |
| 2026-05-06 21:54 | 52.25596 | 9.45623 | 32886 ft | 420 kts | 204° |
| 2026-05-06 21:54 | 52.20259 | 9.41803 | 32877 ft | 419 kts | 204° |
| 2026-05-06 21:55 | 52.14923 | 9.37991 | 32879 ft | 420 kts | 204° |
| 2026-05-06 21:55 | 52.09573 | 9.34183 | 32878 ft | 421 kts | 204° |
| 2026-05-06 21:56 | 52.04218 | 9.30378 | 32878 ft | 421 kts | 204° |
| 2026-05-06 21:56 | 51.98866 | 9.26583 | 32878 ft | 422 kts | 204° |
| 2026-05-06 21:57 | 51.93500 | 9.22790 | 32878 ft | 421 kts | 204° |
| 2026-05-06 21:57 | 51.88449 | 9.18087 | 32880 ft | 421 kts | 217° |
| 2026-05-06 21:58 | 51.84257 | 9.11452 | 32877 ft | 424 kts | 226° |
| 2026-05-06 21:58 | 51.80380 | 9.04280 | 32880 ft | 426 kts | 228° |
| 2026-05-06 21:59 | 51.76535 | 8.97022 | 32879 ft | 427 kts | 228° |
| 2026-05-06 21:59 | 51.72649 | 8.89768 | 32877 ft | 429 kts | 227° |
| 2026-05-06 22:00 | 51.68735 | 8.82537 | 32877 ft | 430 kts | 227° |
| 2026-05-06 22:00 | 51.64892 | 8.75474 | 32884 ft | 430 kts | 227° |
| 2026-05-06 22:01 | 51.60643 | 8.68747 | 32888 ft | 430 kts | 216° |
| 2026-05-06 22:01 | 51.55601 | 8.63612 | 32887 ft | 431 kts | 210° |
| 2026-05-06 22:02 | 51.50385 | 8.58912 | 32883 ft | 431 kts | 208° |
| 2026-05-06 22:02 | 51.45133 | 8.54284 | 32879 ft | 431 kts | 208° |
| 2026-05-06 22:03 | 51.39891 | 8.49645 | 32878 ft | 431 kts | 208° |
| 2026-05-06 22:03 | 51.34657 | 8.44990 | 32878 ft | 431 kts | 208° |
| 2026-05-06 22:04 | 51.29542 | 8.40031 | 32878 ft | 432 kts | 217° |
| 2026-05-06 22:04 | 51.25541 | 8.32926 | 32704 ft | 433 kts | 234° |
| 2026-05-06 22:05 | 51.23923 | 8.28894 | 32024 ft | 434 kts | 237° |
| 2026-05-06 22:05 | 51.22389 | 8.24750 | 31263 ft | 436 kts | 238° |
| 2026-05-06 22:05 | 51.20894 | 8.20558 | 30574 ft | 436 kts | 238° |
| 2026-05-06 22:05 | 51.19415 | 8.16368 | 29971 ft | 433 kts | 238° |
| 2026-05-06 22:06 | 51.17941 | 8.12221 | 29398 ft | 429 kts | 238° |
| 2026-05-06 22:06 | 51.16466 | 8.08115 | 28835 ft | 426 kts | 238° |
| 2026-05-06 22:06 | 51.14993 | 8.04058 | 28292 ft | 422 kts | 238° |
| 2026-05-06 22:06 | 51.13524 | 8.00042 | 27712 ft | 419 kts | 238° |
| 2026-05-06 22:07 | 51.12059 | 7.96057 | 27119 ft | 416 kts | 238° |
| 2026-05-06 22:07 | 51.10600 | 7.92104 | 26486 ft | 415 kts | 238° |
| 2026-05-06 22:07 | 51.09145 | 7.88170 | 25925 ft | 412 kts | 238° |
| 2026-05-06 22:07 | 51.07704 | 7.84262 | 25367 ft | 408 kts | 240° |
| 2026-05-06 22:08 | 51.06581 | 7.80141 | 24806 ft | 407 kts | 251° |
| 2026-05-06 22:08 | 51.05785 | 7.75852 | 24238 ft | 404 kts | 253° |
| 2026-05-06 22:08 | 51.05100 | 7.71548 | 23673 ft | 401 kts | 255° |
| 2026-05-06 22:08 | 51.04483 | 7.67253 | 23138 ft | 398 kts | 256° |
| 2026-05-06 22:09 | 51.03899 | 7.62984 | 22572 ft | 395 kts | 257° |
| 2026-05-06 22:09 | 51.03325 | 7.58745 | 22012 ft | 392 kts | 257° |
| 2026-05-06 22:09 | 51.02751 | 7.54545 | 21453 ft | 388 kts | 257° |
| 2026-05-06 22:09 | 51.02174 | 7.50382 | 20894 ft | 385 kts | 257° |
| 2026-05-06 22:10 | 51.01594 | 7.46255 | 20334 ft | 382 kts | 257° |
| 2026-05-06 22:10 | 51.00999 | 7.42174 | 19779 ft | 379 kts | 254° |
| 2026-05-06 22:10 | 51.00035 | 7.38326 | 19210 ft | 376 kts | 241° |
| 2026-05-06 22:10 | 50.98539 | 7.34973 | 18642 ft | 373 kts | 227° |
| 2026-05-06 22:11 | 50.96510 | 7.32472 | 18054 ft | 371 kts | 208° |
| 2026-05-06 22:11 | 50.94082 | 7.31199 | 17480 ft | 370 kts | 188° |
| 2026-05-06 22:11 | 50.91536 | 7.31323 | 16909 ft | 369 kts | 168° |
| 2026-05-06 22:11 | 50.89167 | 7.32829 | 16325 ft | 368 kts | 149° |
| 2026-05-06 22:12 | 50.87101 | 7.35176 | 15763 ft | 366 kts | 142° |
| 2026-05-06 22:12 | 50.85190 | 7.37800 | 15183 ft | 363 kts | 138° |
| 2026-05-06 22:12 | 50.83369 | 7.40526 | 14614 ft | 360 kts | 136° |
| 2026-05-06 22:12 | 50.81582 | 7.43266 | 14042 ft | 357 kts | 136° |
| 2026-05-06 22:13 | 50.79804 | 7.45972 | 13471 ft | 355 kts | 137° |
| 2026-05-06 22:13 | 50.78019 | 7.48638 | 12898 ft | 352 kts | 137° |
| 2026-05-06 22:13 | 50.76238 | 7.51249 | 12322 ft | 349 kts | 138° |
| 2026-05-06 22:13 | 50.74459 | 7.53820 | 11745 ft | 346 kts | 138° |
| 2026-05-06 22:14 | 50.72696 | 7.56345 | 11355 ft | 338 kts | 139° |
| 2026-05-06 22:14 | 50.70990 | 7.58777 | 11146 ft | 324 kts | 139° |
| 2026-05-06 22:14 | 50.69353 | 7.61108 | 10955 ft | 312 kts | 139° |
| 2026-05-06 22:14 | 50.67769 | 7.63359 | 10723 ft | 303 kts | 139° |
| 2026-05-06 22:15 | 50.66220 | 7.65557 | 10388 ft | 299 kts | 139° |
| 2026-05-06 22:15 | 50.64686 | 7.67731 | 10033 ft | 296 kts | 139° |
| 2026-05-06 22:15 | 50.63172 | 7.69900 | 9603 ft | 293 kts | 139° |
| 2026-05-06 22:15 | 50.61664 | 7.72052 | 9152 ft | 292 kts | 139° |
| 2026-05-06 22:16 | 50.60058 | 7.73999 | 8665 ft | 291 kts | 153° |
| 2026-05-06 22:16 | 50.58176 | 7.75041 | 8205 ft | 288 kts | 174° |
| 2026-05-06 22:16 | 50.56223 | 7.74786 | 7840 ft | 281 kts | 201° |
| 2026-05-06 22:16 | 50.54554 | 7.73309 | 7460 ft | 274 kts | 219° |
| 2026-05-06 22:17 | 50.53221 | 7.71210 | 7001 ft | 272 kts | 238° |
| 2026-05-06 22:17 | 50.52506 | 7.68508 | 6581 ft | 269 kts | 260° |
| 2026-05-06 22:17 | 50.52525 | 7.65618 | 6257 ft | 264 kts | 283° |
| 2026-05-06 22:17 | 50.53256 | 7.63061 | 6086 ft | 254 kts | 305° |
| 2026-05-06 22:18 | 50.54366 | 7.60973 | 5942 ft | 245 kts | 313° |
| 2026-05-06 22:18 | 50.55564 | 7.59153 | 5832 ft | 236 kts | 317° |
| 2026-05-06 22:18 | 50.56774 | 7.57492 | 5706 ft | 227 kts | 319° |
| 2026-05-06 22:18 | 50.57966 | 7.55909 | 5503 ft | 223 kts | 319° |
| 2026-05-06 22:19 | 50.59133 | 7.54352 | 5372 ft | 217 kts | 319° |
| 2026-05-06 22:19 | 50.60250 | 7.52834 | 5268 ft | 210 kts | 319° |
| 2026-05-06 22:19 | 50.61332 | 7.51334 | 5100 ft | 206 kts | 318° |
| 2026-05-06 22:19 | 50.62394 | 7.49839 | 4889 ft | 204 kts | 318° |
| 2026-05-06 22:20 | 50.63443 | 7.48348 | 4672 ft | 203 kts | 318° |
| 2026-05-06 22:20 | 50.64483 | 7.46860 | 4499 ft | 199 kts | 318° |
| 2026-05-06 22:20 | 50.65476 | 7.45434 | 4350 ft | 189 kts | 318° |
| 2026-05-06 22:20 | 50.66439 | 7.44058 | 4145 ft | 186 kts | 318° |
| 2026-05-06 22:21 | 50.67391 | 7.42695 | 3890 ft | 185 kts | 318° |
| 2026-05-06 22:21 | 50.68340 | 7.41335 | 3632 ft | 184 kts | 319° |
| 2026-05-06 22:21 | 50.69278 | 7.39990 | 3410 ft | 181 kts | 319° |
| 2026-05-06 22:21 | 50.70182 | 7.38690 | 3295 ft | 171 kts | 319° |
| 2026-05-06 22:22 | 50.71032 | 7.37468 | 3210 ft | 162 kts | 319° |
| 2026-05-06 22:22 | 50.71857 | 7.36282 | 3216 ft | 160 kts | 319° |
| 2026-05-06 22:22 | 50.72676 | 7.35105 | 3207 ft | 157 kts | 319° |
| 2026-05-06 22:22 | 50.73451 | 7.33991 | 3185 ft | 146 kts | 319° |
| 2026-05-06 22:23 | 50.74189 | 7.32923 | 3177 ft | 141 kts | 319° |
| 2026-05-06 22:23 | 50.74888 | 7.31912 | 3160 ft | 133 kts | 319° |
| 2026-05-06 22:23 | 50.75567 | 7.30935 | 2983 ft | 132 kts | 320° |
| 2026-05-06 22:23 | 50.76243 | 7.29965 | 2778 ft | 131 kts | 320° |
| 2026-05-06 22:24 | 50.76914 | 7.28998 | 2598 ft | 131 kts | 319° |
| 2026-05-06 22:24 | 50.77587 | 7.28025 | 2419 ft | 131 kts | 319° |
| 2026-05-06 22:24 | 50.78258 | 7.27057 | 2245 ft | 131 kts | 319° |
| 2026-05-06 22:24 | 50.78932 | 7.26095 | 2068 ft | 130 kts | 320° |
| 2026-05-06 22:25 | 50.79636 | 7.25195 | 1883 ft | 130 kts | 324° |
| 2026-05-06 22:25 | 50.80340 | 7.24295 | 1691 ft | 131 kts | 321° |
| 2026-05-06 22:25 | 50.80996 | 7.23367 | 1586 ft | 124 kts | 317° |
| 2026-05-06 22:25 | 50.81570 | 7.22387 | 1452 ft | 121 kts | 312° |
| 2026-05-06 22:26 | 50.82151 | 7.21420 | 1281 ft | 124 kts | 316° |
| 2026-05-06 22:26 | 50.82792 | 7.20473 | 1181 ft | 130 kts | 319° |
| 2026-05-06 22:26 | 50.83481 | 7.19504 | 981 ft | 135 kts | 319° |
| 2026-05-06 22:26 | 50.84194 | 7.18518 | 750 ft | 137 kts | 318° |
| 2026-05-06 22:27 | 50.84893 | 7.17489 | 550 ft | 138 kts | 318° |
| 2026-05-06 22:27 | 50.85589 | 7.16471 | 359 ft | 134 kts | 318° |
| 2026-05-06 22:27 | 50.86226 | 7.15543 | 280 ft | 109 kts | 317° |
| 2026-05-06 22:27 | 50.86614 | 7.14968 | 266 ft | 47 kts | 316° |
| 2026-05-06 22:28 | 50.86846 | 7.14669 | 260 ft | 19 kts | 314° |
| 2026-05-06 22:28 | 50.86856 | 7.14628 | 259 ft | 9 kts | 287° |
| 2026-05-06 22:28 | 50.86874 | 7.14459 | 261 ft | 20 kts | 278° |
| 2026-05-06 22:28 | 50.86897 | 7.14218 | 259 ft | 26 kts | 278° |
| 2026-05-06 22:29 | 50.86908 | 7.14036 | 253 ft | 13 kts | 247° |
| 2026-05-06 22:29 | 50.86830 | 7.14061 | 251 ft | 14 kts | 138° |
| 2026-05-06 22:29 | 50.86734 | 7.14109 | 255 ft | 14 kts | 198° |
| 2026-05-06 22:29 | 50.86681 | 7.13986 | 254 ft | 22 kts | 246° |
| 2026-05-06 22:30 | 50.86593 | 7.13679 | 245 ft | 37 kts | 246° |
| 2026-05-06 22:30 | 50.86509 | 7.13371 | 247 ft | 26 kts | 259° |
| 2026-05-06 22:30 | 50.86570 | 7.13167 | 242 ft | 19 kts | 334° |
| 2026-05-06 22:30 | 50.86676 | 7.13031 | 242 ft | 26 kts | 315° |
| 2026-05-06 22:31 | 50.86835 | 7.12803 | 240 ft | 36 kts | 317° |
| 2026-05-06 22:31 | 50.87023 | 7.12528 | 240 ft | 36 kts | 322° |
| 2026-05-06 22:31 | 50.87156 | 7.12317 | 239 ft | 15 kts | 292° |
| 2026-05-06 22:31 | 50.87122 | 7.12180 | 238 ft | 18 kts | 230° |
| 2026-05-06 22:32 | 50.87001 | 7.12046 | 238 ft | 11 kts | 200° |
| 2026-05-06 22:32 | 50.86894 | 7.12075 | 237 ft | 22 kts | 167° |
| 2026-05-06 22:32 | 50.86804 | 7.12062 | 241 ft | 6 kts | 212° |
| 2026-05-06 22:32 | 50.86783 | 7.11979 | 237 ft | 9 kts | 253° |
| 2026-05-06 22:33 | 50.86782 | 7.11971 | 238 ft | 0 kts | 253° |